createdAt,value
2017-10-19T00:02:20.688Z,96.70
2017-10-19T00:04:51.304Z,97.00
2017-10-19T00:10:02.550Z,97.00
2017-10-19T00:12:47.582Z,96.50
2017-10-19T00:15:17.936Z,96.20
2017-10-19T00:19:07.584Z,96.00
2017-10-19T00:21:38.065Z,95.80
2017-10-19T00:24:08.252Z,95.50
2017-10-19T00:26:38.265Z,95.40
2017-10-19T00:29:09.306Z,95.70
2017-10-19T00:31:40.181Z,95.50
2017-10-19T00:34:10.222Z,95.50
2017-10-19T00:36:41.129Z,95.50
2017-10-19T00:39:11.458Z,95.40
2017-10-19T00:41:41.217Z,95.30
2017-10-19T00:44:11.961Z,95.30
2017-10-19T00:46:41.966Z,95.30
2017-10-19T00:49:11.815Z,95.30
2017-10-19T00:51:42.517Z,95.60
2017-10-19T00:54:12.902Z,95.40
2017-10-19T00:56:43.167Z,95.60
2017-10-19T00:59:13.530Z,95.70
2017-10-19T01:01:43.593Z,95.70
2017-10-19T01:04:14.584Z,95.80
2017-10-19T01:06:45.157Z,95.80
2017-10-19T01:09:15.161Z,95.80
2017-10-19T01:11:45.042Z,96.00
2017-10-19T01:14:15.350Z,96.30
2017-10-19T01:16:45.414Z,96.40
2017-10-19T01:19:15.435Z,96.30
2017-10-19T01:21:45.981Z,96.60
2017-10-19T01:24:16.153Z,96.60
2017-10-19T01:26:46.215Z,96.50
2017-10-19T01:29:16.556Z,96.50
2017-10-19T01:31:46.247Z,96.40
2017-10-19T01:34:15.891Z,96.30
2017-10-19T01:36:45.805Z,96.20
2017-10-19T01:39:15.576Z,96.30
2017-10-19T01:41:45.959Z,96.20
2017-10-19T01:44:16.209Z,96.20
2017-10-19T01:46:47.054Z,96.10
2017-10-19T01:49:17.142Z,96.00
2017-10-19T01:51:47.843Z,96.30
2017-10-19T01:54:17.980Z,96.30
2017-10-19T01:56:48.065Z,96.30
2017-10-19T01:59:18.998Z,96.10
2017-10-19T02:01:49.122Z,96.10
2017-10-19T02:04:19.220Z,96.20
2017-10-19T02:06:49.650Z,96.30
2017-10-19T02:09:19.682Z,96.30
2017-10-19T02:11:50.662Z,96.10
2017-10-19T02:14:21.212Z,96.10
2017-10-19T02:16:51.942Z,96.70
2017-10-19T02:19:22.001Z,96.70
2017-10-19T02:21:53.191Z,96.60
2017-10-19T02:24:23.142Z,96.60
2017-10-19T02:26:53.393Z,96.60
2017-10-19T02:29:24.614Z,96.60
2017-10-19T02:31:56.157Z,97.00
2017-10-19T02:34:26.159Z,96.90
2017-10-19T02:36:56.221Z,97.40
2017-10-19T02:39:26.907Z,97.40
2017-10-19T02:41:57.506Z,97.40
2017-10-19T02:44:27.453Z,97.50
2017-10-19T02:46:57.374Z,97.40
2017-10-19T02:49:27.414Z,96.90
2017-10-19T02:51:57.432Z,97.10
2017-10-19T02:54:28.499Z,97.50
2017-10-19T02:56:58.882Z,97.40
2017-10-19T02:59:29.340Z,97.50
2017-10-19T03:02:00.050Z,97.80
2017-10-19T03:04:29.682Z,97.80
2017-10-19T03:06:59.641Z,97.60
2017-10-19T03:09:30.341Z,97.80
2017-10-19T03:21:03.122Z,98.00
2017-10-19T03:23:33.765Z,97.70
2017-10-19T03:26:04.091Z,97.60
2017-10-19T03:28:35.353Z,97.40
2017-10-19T03:31:05.500Z,97.40
2017-10-19T03:33:35.612Z,97.30
2017-10-19T03:36:05.771Z,97.60
2017-10-19T03:38:35.938Z,97.40
2017-10-19T03:41:06.058Z,97.70
2017-10-19T03:43:36.276Z,97.90
2017-10-19T03:46:06.671Z,97.90
2017-10-19T03:48:37.023Z,97.70
2017-10-19T03:51:08.151Z,97.60
2017-10-19T03:53:38.788Z,97.50
2017-10-19T03:56:09.211Z,97.20
2017-10-19T03:58:40.382Z,97.30
2017-10-19T04:01:10.707Z,97.30
2017-10-19T04:03:41.151Z,97.10
2017-10-19T04:06:11.751Z,97.20
2017-10-19T04:08:42.892Z,97.30
2017-10-19T04:11:14.531Z,97.40
2017-10-19T04:13:45.154Z,97.30
2017-10-19T04:16:15.391Z,97.10
2017-10-19T04:18:46.559Z,97.40
2017-10-19T04:21:17.513Z,97.40
2017-10-19T04:23:47.672Z,97.30
2017-10-19T04:26:18.301Z,97.40
2017-10-19T04:28:48.632Z,97.30
2017-10-19T04:31:18.644Z,97.30
2017-10-19T04:33:49.048Z,97.30
2017-10-19T04:36:21.152Z,97.70
2017-10-19T04:38:51.821Z,97.80
2017-10-19T04:41:22.058Z,97.80
2017-10-19T04:43:52.547Z,98.00
2017-10-19T04:46:23.690Z,97.60
2017-10-19T04:48:54.468Z,97.50
2017-10-19T04:51:24.552Z,97.50
2017-10-19T04:53:56.552Z,97.50
2017-10-19T04:56:26.973Z,97.50
2017-10-19T04:58:57.045Z,97.50
2017-10-19T05:01:27.396Z,97.60
2017-10-19T05:03:57.492Z,97.60
2017-10-19T05:06:27.656Z,97.70
2017-10-19T05:08:57.976Z,97.70
2017-10-19T05:11:28.112Z,97.80
2017-10-19T05:13:58.215Z,97.70
2017-10-19T05:16:28.481Z,97.60
2017-10-19T05:18:58.728Z,97.50
2017-10-19T05:21:29.601Z,97.30
2017-10-19T05:23:59.664Z,97.10
2017-10-19T05:26:29.763Z,97.20
2017-10-19T05:29:00.291Z,97.20
2017-10-19T05:31:33.391Z,97.40
2017-10-19T05:34:04.575Z,97.70
2017-10-19T05:36:34.979Z,97.50
2017-10-19T05:39:05.211Z,97.40
2017-10-19T05:41:36.033Z,96.90
2017-10-19T05:44:06.700Z,96.90
2017-10-19T05:46:36.724Z,96.90
2017-10-19T05:49:06.732Z,96.90
2017-10-19T05:51:37.240Z,96.90
2017-10-19T05:54:08.065Z,96.60
2017-10-19T05:56:38.166Z,96.60
2017-10-19T05:59:08.520Z,96.60
2017-10-19T06:01:39.415Z,96.50
2017-10-19T06:04:09.445Z,96.50
2017-10-19T06:06:39.535Z,96.10
2017-10-19T06:09:09.613Z,96.40
2017-10-19T06:11:39.653Z,96.30
2017-10-19T06:14:09.845Z,96.50
2017-10-19T06:16:40.899Z,95.90
2017-10-19T06:19:11.742Z,95.60
2017-10-19T06:21:42.768Z,95.60
2017-10-19T06:24:12.848Z,95.50
2017-10-19T06:26:43.104Z,95.70
2017-10-19T06:29:14.334Z,95.90
2017-10-19T06:31:44.628Z,95.90
2017-10-19T06:34:14.764Z,95.80
2017-10-19T06:36:44.808Z,96.10
2017-10-19T06:39:15.027Z,95.80
2017-10-19T06:41:45.209Z,95.50
2017-10-19T06:44:15.393Z,94.50
2017-10-19T06:46:46.341Z,91.70
2017-10-19T06:49:17.230Z,90.90
2017-10-19T06:51:48.533Z,90.90
2017-10-19T06:54:18.613Z,90.10
2017-10-19T06:56:48.885Z,89.00
2017-10-19T06:59:25.045Z,86.80
2017-10-19T07:01:55.185Z,85.90
2017-10-19T07:04:25.346Z,85.00
2017-10-19T07:06:55.533Z,84.60
2017-10-19T07:09:25.743Z,85.20
2017-10-19T07:11:55.820Z,82.80
2017-10-19T07:14:25.845Z,82.50
2017-10-19T07:16:56.724Z,78.70
2017-10-19T07:19:27.171Z,78.00
2017-10-19T07:21:57.581Z,75.10
2017-10-19T07:24:27.716Z,69.20
2017-10-19T07:26:57.854Z,66.40
2017-10-19T07:29:28.806Z,61.80
2017-10-19T07:31:59.955Z,61.10
2017-10-19T07:34:30.115Z,60.90
2017-10-19T07:37:00.667Z,61.70
2017-10-19T07:39:31.059Z,63.70
2017-10-19T07:42:01.117Z,66.60
2017-10-19T07:44:31.496Z,69.70
2017-10-19T07:47:15.684Z,73.70
2017-10-19T07:49:45.952Z,77.00
2017-10-19T07:52:16.341Z,78.50
2017-10-19T07:54:46.367Z,81.20
2017-10-19T07:57:16.418Z,81.40
2017-10-19T07:59:46.687Z,82.80
2017-10-19T08:02:16.748Z,83.40
2017-10-19T08:04:46.838Z,82.00
2017-10-19T08:07:17.960Z,82.00
2017-10-19T08:09:48.037Z,83.60
2017-10-19T08:12:18.948Z,83.90
2017-10-19T08:14:49.050Z,83.80
2017-10-19T08:17:19.084Z,83.40
2017-10-19T08:19:49.190Z,83.40
2017-10-19T08:22:20.511Z,83.60
2017-10-19T08:24:50.524Z,83.30
2017-10-19T08:27:20.629Z,84.30
2017-10-19T08:29:51.641Z,82.50
2017-10-19T08:32:21.939Z,82.50
2017-10-19T08:34:52.311Z,83.90
2017-10-19T08:37:22.492Z,82.10
2017-10-19T08:39:52.588Z,81.20
2017-10-19T08:42:22.767Z,80.90
2017-10-19T08:44:53.661Z,75.90
2017-10-19T08:47:26.780Z,75.90
2017-10-19T08:49:57.785Z,73.70
2017-10-19T08:52:28.542Z,70.50
2017-10-19T08:55:02.884Z,69.30
2017-10-19T08:57:33.962Z,63.20
2017-10-19T09:00:04.113Z,63.30
2017-10-19T09:02:35.086Z,62.00
2017-10-19T09:05:05.988Z,61.90
2017-10-19T09:07:36.160Z,62.90
2017-10-19T09:10:07.181Z,60.50
2017-10-19T09:12:37.807Z,60.50
2017-10-19T09:15:07.885Z,58.30
2017-10-19T09:20:21.792Z,58.70
2017-10-19T09:22:52.423Z,58.90
2017-10-19T09:25:22.636Z,57.70
2017-10-19T09:27:52.816Z,58.20
2017-10-19T09:30:23.102Z,57.30
2017-10-19T09:33:09.891Z,56.40
2017-10-19T09:35:40.448Z,56.30
2017-10-19T09:38:11.238Z,57.30
2017-10-19T09:40:41.351Z,57.30
2017-10-19T09:43:11.501Z,55.10
2017-10-19T09:45:41.637Z,55.20
2017-10-19T09:48:12.602Z,56.10
2017-10-19T09:50:43.490Z,56.40
2017-10-19T09:53:14.757Z,56.90
2017-10-19T09:55:46.191Z,56.80
2017-10-19T09:58:16.340Z,56.90
2017-10-19T10:00:47.288Z,57.00
2017-10-19T10:03:19.484Z,56.90
2017-10-19T10:05:49.556Z,56.90
2017-10-19T10:08:19.605Z,56.70
2017-10-19T10:10:50.705Z,57.30
2017-10-19T10:13:20.894Z,57.20
2017-10-19T10:15:51.000Z,57.10
2017-10-19T10:18:21.382Z,57.30
2017-10-19T10:20:51.493Z,57.40
2017-10-19T10:23:21.893Z,57.00
2017-10-19T10:25:52.049Z,56.80
2017-10-19T10:28:22.117Z,58.90
2017-10-19T10:30:52.189Z,58.10
2017-10-19T10:33:22.384Z,59.00
2017-10-19T10:35:52.480Z,58.70
2017-10-19T10:38:22.876Z,57.60
2017-10-19T10:40:54.172Z,55.90
2017-10-19T10:43:24.223Z,55.90
2017-10-19T10:45:54.256Z,57.30
2017-10-19T10:48:25.275Z,55.20
2017-10-19T10:50:55.308Z,55.20
2017-10-19T10:53:25.423Z,53.40
2017-10-19T10:55:55.723Z,52.50
2017-10-19T10:58:25.799Z,54.70
2017-10-19T11:00:57.550Z,57.50
2017-10-19T11:03:28.566Z,54.80
2017-10-19T11:05:58.667Z,54.70
2017-10-19T11:08:28.754Z,54.50
2017-10-19T11:10:58.807Z,51.60
2017-10-19T11:13:29.283Z,52.40
2017-10-19T11:16:00.372Z,51.70
2017-10-19T11:18:30.578Z,51.60
2017-10-19T11:21:00.856Z,50.90
2017-10-19T11:23:32.153Z,48.10
2017-10-19T11:26:02.214Z,48.00
2017-10-19T11:28:33.394Z,46.30
2017-10-19T11:31:03.825Z,46.30
2017-10-19T11:33:34.956Z,49.80
2017-10-19T11:36:05.980Z,48.50
2017-10-19T11:38:36.872Z,53.60
2017-10-19T11:41:06.932Z,53.60
2017-10-19T11:43:37.176Z,50.90
2017-10-19T11:46:08.745Z,52.30
2017-10-19T11:48:39.036Z,52.30
2017-10-19T11:51:09.129Z,52.20
2017-10-19T11:53:39.299Z,53.20
2017-10-19T11:56:10.121Z,55.80
2017-10-19T11:58:40.996Z,57.00
2017-10-19T12:01:11.225Z,56.90
2017-10-19T12:03:41.276Z,57.00
2017-10-19T12:06:11.620Z,55.00
2017-10-19T12:08:41.723Z,54.20
2017-10-19T12:11:11.855Z,54.70
2017-10-19T12:13:42.196Z,53.90
2017-10-19T12:16:13.052Z,54.60
2017-10-19T12:18:43.457Z,54.60
2017-10-19T12:21:13.929Z,54.80
2017-10-19T12:23:44.519Z,55.00
2017-10-19T12:26:15.422Z,56.50
2017-10-19T12:28:47.938Z,55.80
2017-10-19T12:31:18.790Z,56.30
2017-10-19T12:33:49.059Z,56.40
2017-10-19T12:36:26.788Z,57.40
2017-10-19T12:38:57.257Z,58.90
2017-10-19T12:42:47.595Z,57.60
2017-10-19T12:45:17.799Z,56.60
2017-10-19T12:47:47.859Z,57.20
2017-10-19T12:50:18.441Z,55.50
2017-10-19T12:52:48.490Z,55.90
2017-10-19T12:55:18.692Z,56.70
2017-10-19T12:57:49.272Z,55.30
2017-10-19T13:00:20.255Z,51.80
2017-10-19T13:02:51.166Z,50.90
2017-10-19T13:05:21.332Z,50.90
2017-10-19T13:07:51.370Z,51.60
2017-10-19T13:10:21.859Z,51.70
2017-10-19T13:12:51.924Z,54.00
2017-10-19T13:15:37.389Z,54.40
2017-10-19T13:18:07.975Z,54.80
2017-10-19T13:20:38.050Z,54.50
2017-10-19T13:23:08.143Z,56.00
2017-10-19T13:25:38.490Z,54.90
2017-10-19T13:28:08.736Z,54.70
2017-10-19T13:30:39.816Z,55.10
2017-10-19T13:33:09.857Z,55.10
2017-10-19T13:35:39.975Z,57.10
2017-10-19T13:38:10.361Z,54.90
2017-10-19T13:40:41.346Z,55.70
2017-10-19T13:43:13.491Z,55.10
2017-10-19T13:45:44.069Z,55.10
2017-10-19T13:48:14.279Z,55.20
2017-10-19T13:50:44.376Z,56.20
2017-10-19T13:53:15.770Z,56.10
2017-10-19T13:55:46.380Z,57.00
2017-10-19T13:58:17.033Z,57.50
2017-10-19T14:00:47.397Z,56.70
2017-10-19T14:03:17.536Z,57.30
2017-10-19T14:05:47.600Z,57.30
2017-10-19T14:08:17.947Z,58.70
2017-10-19T14:10:47.998Z,60.10
2017-10-19T14:13:18.252Z,59.30
2017-10-19T14:15:49.572Z,59.10
2017-10-19T14:18:37.336Z,59.20
2017-10-19T14:21:08.483Z,60.00
2017-10-19T14:23:39.284Z,61.20
2017-10-19T14:26:09.529Z,61.20
2017-10-19T14:28:39.836Z,60.80
2017-10-19T14:31:11.307Z,60.70
2017-10-19T14:33:42.095Z,61.40
2017-10-19T14:36:12.257Z,61.40
2017-10-19T14:38:42.489Z,60.60
2017-10-19T14:41:12.530Z,61.20
2017-10-19T14:43:43.997Z,62.40
2017-10-19T14:46:14.265Z,62.30
2017-10-19T14:48:45.620Z,62.90
2017-10-19T14:51:16.056Z,63.20
2017-10-19T14:53:46.903Z,65.90
2017-10-19T14:56:17.797Z,68.00
2017-10-19T14:58:47.992Z,67.80
2017-10-19T15:01:18.044Z,68.80
2017-10-19T15:03:48.089Z,68.60
2017-10-19T15:06:18.341Z,70.00
2017-10-19T15:08:49.449Z,71.00
2017-10-19T15:11:19.564Z,71.00
2017-10-19T15:13:52.320Z,67.00
2017-10-19T15:16:22.480Z,68.30
2017-10-19T15:18:52.942Z,69.00
2017-10-19T15:21:23.741Z,69.90
2017-10-19T15:23:54.707Z,72.60
2017-10-19T15:26:25.824Z,73.60
2017-10-19T15:28:57.434Z,75.00
2017-10-19T15:31:27.635Z,75.00
2017-10-19T15:33:57.708Z,74.70
2017-10-19T15:36:27.822Z,76.40
2017-10-19T15:38:58.635Z,75.80
2017-10-19T15:41:28.932Z,75.60
2017-10-19T15:44:00.061Z,79.00
2017-10-19T15:46:31.096Z,80.20
2017-10-19T15:49:02.104Z,80.20
2017-10-19T15:51:32.161Z,80.50
2017-10-19T15:54:03.402Z,82.20
2017-10-19T15:56:34.233Z,82.40
2017-10-19T15:59:04.305Z,82.40
2017-10-19T16:01:34.419Z,83.60
2017-10-19T16:04:04.579Z,83.00
2017-10-19T16:06:34.729Z,82.60
2017-10-19T16:09:06.096Z,85.00
2017-10-19T16:11:36.526Z,85.00
2017-10-19T16:14:06.691Z,85.10
2017-10-19T16:16:37.059Z,85.90
2017-10-19T16:19:07.856Z,87.70
2017-10-19T16:21:37.936Z,87.70
2017-10-19T16:24:08.514Z,88.50
2017-10-19T16:26:38.812Z,88.10
2017-10-19T16:29:08.991Z,87.30
2017-10-19T16:31:39.125Z,88.50
2017-10-19T16:34:09.189Z,88.30
2017-10-19T16:36:40.072Z,89.60
2017-10-19T16:39:10.213Z,89.60
2017-10-19T16:41:40.263Z,90.30
2017-10-19T16:44:10.685Z,90.30
2017-10-19T16:46:40.813Z,90.90
2017-10-19T16:49:10.841Z,90.70
2017-10-19T16:51:41.753Z,90.20
2017-10-19T16:54:11.890Z,90.20
2017-10-19T16:56:43.019Z,90.30
2017-10-19T16:59:13.677Z,90.40
2017-10-19T17:01:44.854Z,90.40
2017-10-19T17:04:15.072Z,90.40
2017-10-19T17:06:45.196Z,90.30
2017-10-19T17:09:15.264Z,90.40
2017-10-19T17:11:45.334Z,90.50
2017-10-19T17:14:15.469Z,91.10
2017-10-19T17:16:45.849Z,91.70
2017-10-19T17:19:17.019Z,93.10
2017-10-19T17:21:47.427Z,93.10
2017-10-19T17:24:18.370Z,93.40
2017-10-19T17:26:49.797Z,93.60
2017-10-19T17:29:20.398Z,93.60
2017-10-19T17:31:50.533Z,93.80
2017-10-19T17:34:20.628Z,94.00
2017-10-19T17:36:51.355Z,94.00
2017-10-19T17:39:21.467Z,94.40
2017-10-19T17:41:52.737Z,94.60
2017-10-19T17:44:25.913Z,94.90
2017-10-19T17:46:57.998Z,94.90
2017-10-19T17:49:28.124Z,95.30
2017-10-19T17:51:58.639Z,95.60
2017-10-19T17:54:28.807Z,96.00
2017-10-19T17:56:58.904Z,95.80
2017-10-19T17:59:29.221Z,95.70
2017-10-19T18:01:59.411Z,95.40
2017-10-19T18:04:29.531Z,95.40
2017-10-19T18:07:01.229Z,95.70
2017-10-19T18:09:31.665Z,95.60
2017-10-19T18:12:02.196Z,95.60
2017-10-19T18:14:34.543Z,95.60
2017-10-19T18:17:05.391Z,95.60
2017-10-19T18:19:36.633Z,95.90
2017-10-19T18:22:07.179Z,95.90
2017-10-19T18:24:37.603Z,95.70
2017-10-19T18:27:09.184Z,95.90
2017-10-19T18:29:39.726Z,96.20
2017-10-19T18:32:09.908Z,96.60
2017-10-19T18:34:40.426Z,96.90
2017-10-19T18:37:10.516Z,97.30
2017-10-19T18:39:40.899Z,96.90
2017-10-19T18:42:11.942Z,97.20
2017-10-19T18:44:42.765Z,97.00
2017-10-19T18:47:14.911Z,97.40
2017-10-19T18:49:45.509Z,97.40
2017-10-19T18:52:17.187Z,97.70
2017-10-19T18:54:47.280Z,97.70
2017-10-19T18:57:17.401Z,98.00
2017-10-19T18:59:48.157Z,98.40
2017-10-19T19:02:18.565Z,97.40
2017-10-19T19:04:49.134Z,97.10
2017-10-19T19:07:19.494Z,97.40
2017-10-19T19:09:49.859Z,97.70
2017-10-19T19:12:22.387Z,98.00
2017-10-19T19:14:53.987Z,98.80
2017-10-19T19:17:24.251Z,98.70
2017-10-19T19:19:54.846Z,98.80
2017-10-19T19:22:26.280Z,99.50
2017-10-19T19:24:57.368Z,99.40
2017-10-19T19:27:29.044Z,99.80
2017-10-19T19:30:00.002Z,99.90
2017-10-19T19:32:30.696Z,99.80
2017-10-19T19:35:01.048Z,99.90
2017-10-19T19:37:32.050Z,99.90
2017-10-19T19:40:02.184Z,99.90
2017-10-19T19:42:32.542Z,99.90
2017-10-19T19:45:02.705Z,99.90
2017-10-19T19:47:33.192Z,99.90
2017-10-19T19:50:05.453Z,99.00
2017-10-19T19:52:35.612Z,99.00
2017-10-19T19:55:06.475Z,99.40
2017-10-19T19:57:40.116Z,99.20
2017-10-19T20:00:12.783Z,98.60
2017-10-19T20:02:44.008Z,98.70
2017-10-19T20:05:15.147Z,98.60
2017-10-19T20:07:45.548Z,99.10
2017-10-19T20:10:16.455Z,99.90
2017-10-19T20:12:46.777Z,99.90
2017-10-19T20:15:17.580Z,99.90
2017-10-19T20:17:48.749Z,99.90
2017-10-19T20:20:19.380Z,99.90
2017-10-19T20:22:49.734Z,99.90
2017-10-19T20:25:20.011Z,99.90
2017-10-19T20:27:50.399Z,99.90
2017-10-19T20:30:21.360Z,99.90
2017-10-19T20:32:52.460Z,99.50
2017-10-19T20:35:23.055Z,99.50
2017-10-19T20:37:54.939Z,99.60
2017-10-19T20:40:26.208Z,99.90
2017-10-19T20:42:56.467Z,99.90
2017-10-19T20:45:26.981Z,99.90
2017-10-19T20:47:57.323Z,99.80
2017-10-19T20:50:28.588Z,99.90
2017-10-19T20:52:59.445Z,99.90
2017-10-19T20:55:29.922Z,99.90
2017-10-19T20:58:01.259Z,98.90
2017-10-19T21:00:32.565Z,98.20
2017-10-19T21:03:02.792Z,98.20
2017-10-19T21:05:33.165Z,97.40
2017-10-19T21:08:03.691Z,96.40
2017-10-19T21:10:33.972Z,95.80
2017-10-19T21:13:04.476Z,95.80
2017-10-19T21:15:34.740Z,96.00
2017-10-19T21:18:04.888Z,96.30
2017-10-19T21:20:35.226Z,96.60
2017-10-19T21:23:05.555Z,95.20
2017-10-19T21:25:35.710Z,95.20
2017-10-19T21:28:07.160Z,94.40
2017-10-19T21:30:37.576Z,94.40
2017-10-19T21:33:09.221Z,94.20
2017-10-19T21:35:39.458Z,94.20
2017-10-19T21:38:10.637Z,93.90
2017-10-19T21:40:41.291Z,93.90
2017-10-19T21:43:11.623Z,93.90
2017-10-19T21:45:41.702Z,93.90
2017-10-19T21:48:12.370Z,94.10
2017-10-19T21:50:42.895Z,94.60
2017-10-19T21:53:13.598Z,94.80
2017-10-19T21:55:45.151Z,94.30
2017-10-19T21:58:15.551Z,94.00
2017-10-19T22:00:49.874Z,93.80
2017-10-19T22:03:21.598Z,93.70
2017-10-19T22:05:51.703Z,93.50
2017-10-19T22:08:21.834Z,93.60
2017-10-19T22:10:52.248Z,94.30
2017-10-19T22:13:22.622Z,93.60
2017-10-19T22:15:52.879Z,93.30
2017-10-19T22:18:24.364Z,94.10
2017-10-19T22:20:55.209Z,94.20
2017-10-19T22:23:26.049Z,94.30
2017-10-19T22:25:56.595Z,94.30
2017-10-19T22:28:28.111Z,94.40
2017-10-19T22:30:58.188Z,94.40
2017-10-19T22:33:29.260Z,93.60
2017-10-19T22:35:59.441Z,93.20
2017-10-19T22:38:30.640Z,92.70
2017-10-19T22:41:00.660Z,92.70
2017-10-19T22:43:31.468Z,92.90
2017-10-19T22:46:01.599Z,92.90
2017-10-19T22:48:31.912Z,92.90
2017-10-19T22:51:02.251Z,92.30
2017-10-19T22:53:32.342Z,92.00
2017-10-19T22:56:02.653Z,91.70
2017-10-19T22:58:33.121Z,91.70
2017-10-19T23:01:03.433Z,91.60
2017-10-19T23:03:33.885Z,91.30
2017-10-19T23:06:04.928Z,91.00
2017-10-19T23:08:35.121Z,91.00
2017-10-19T23:11:05.132Z,90.90
2017-10-19T23:13:35.384Z,90.40
2017-10-19T23:16:05.531Z,90.00
2017-10-19T23:18:36.947Z,89.40
2017-10-19T23:21:07.113Z,89.50
2017-10-19T23:23:38.836Z,88.60
2017-10-19T23:26:09.865Z,89.00
2017-10-19T23:28:41.441Z,88.50
2017-10-19T23:31:11.620Z,88.50
2017-10-19T23:33:41.688Z,88.40
2017-10-19T23:36:11.992Z,87.70
2017-10-19T23:38:42.047Z,88.00
2017-10-19T23:41:12.529Z,88.20
2017-10-19T23:43:43.106Z,89.00
2017-10-19T23:46:13.290Z,88.70
2017-10-19T23:48:43.577Z,88.10
2017-10-19T23:51:14.331Z,88.30
2017-10-19T23:53:44.656Z,88.10
2017-10-19T23:56:15.232Z,87.00
2017-10-19T23:58:46.738Z,88.70
